Terminal Aerodrome Forecast
Issued by NWS St Louis, MO

Home | Current Version | Previous Version | Text Only | Print | Product List | Glossary On
Versions: 1 2 3 4 5 6 7 8 9 10 11 12 13 14 15 16 17 18 19 20 21 22 23 24 25 26 27 28 29 30
000
FTUS43 KLSX 292000 CCA
TAFSTL
TAF COR
KSTL 292028Z 2920/3024 20010KT P6SM SCT040
     FM292300 19007KT 6SM -SHRA VCTS SCT030CB BKN070
     FM300200 19008KT P6SM BKN060
     FM301700 22010KT P6SM VCTS SCT040CB=

USA.gov is the U.S. government's official web portal to all federal, state and local government web resources and services.